Time;durP1;ratioP1;P1;durP2;ratioP2;P2;SDS_P1;SDS_P2;PMS_P1;PMS_P2;Temp;Humidity;BMP_temperature;BMP_pressure;BME280_temperature;BME280_humidity;BME280_pressure;Samples;Min_cycle;Max_cycle;Signal;HPM_P1;HPM_P2
2022/08/14 00:01:04;;;;;;;1.42;1.27;;;34.50;46.40;;;;;;10409050;28;20042;-37
2022/08/14 00:06:06;;;;;;;2.28;1.45;;;34.40;46.30;;;;;;10401315;28;20045;-35
2022/08/14 00:11:09;;;;;;;1.65;1.25;;;34.40;46.20;;;;;;10406961;28;20073;-36
2022/08/14 00:16:13;;;;;;;2.05;1.38;;;34.40;46.30;;;;;;10411806;28;20079;-36
2022/08/14 00:21:15;;;;;;;1.20;1.10;;;34.30;46.20;;;;;;10415642;28;20098;-37
2022/08/14 00:26:18;;;;;;;1.40;1.27;;;34.20;46.20;;;;;;10404727;28;20454;-36
2022/08/14 00:31:20;;;;;;;3.10;1.15;;;34.20;46.10;;;;;;10407778;28;20033;-35
2022/08/14 00:36:23;;;;;;;1.67;1.38;;;34.20;46.20;;;;;;10401579;28;20465;-36
2022/08/14 00:41:32;;;;;;;1.30;1.15;;;34.10;46.20;;;;;;10413232;28;20125;-36
2022/08/14 00:46:34;;;;;;;1.30;1.20;;;34.10;46.20;;;;;;10404788;28;20148;-36
2022/08/14 00:51:37;;;;;;;3.00;1.20;;;34.10;46.10;;;;;;10407723;28;20508;-36
2022/08/14 00:56:40;;;;;;;3.03;1.35;;;34.00;46.20;;;;;;10391460;28;20390;-37
2022/08/14 01:01:42;;;;;;;1.80;1.40;;;34.00;46.20;;;;;;10394503;28;20709;-36
2022/08/14 01:06:44;;;;;;;1.30;1.20;;;33.90;46.30;;;;;;10390231;28;20132;-36
2022/08/14 01:11:49;;;;;;;1.95;1.40;;;33.80;46.00;;;;;;10399648;28;20151;-37
2022/08/14 01:16:50;;;;;;;4.20;1.65;;;33.80;45.70;;;;;;10401497;28;20087;-37
2022/08/14 01:21:54;;;;;;;1.83;1.30;;;33.80;45.70;;;;;;10398722;28;20158;-36
2022/08/14 01:26:56;;;;;;;1.92;1.27;;;33.70;45.60;;;;;;10399525;28;20148;-36
2022/08/14 01:32:03;;;;;;;1.92;1.50;;;33.60;45.40;;;;;;10399944;28;20057;-35
2022/08/14 01:37:06;;;;;;;2.67;1.23;;;33.60;45.40;;;;;;10387435;28;20041;-36
2022/08/14 01:42:08;;;;;;;3.35;1.50;;;33.50;45.40;;;;;;10406108;28;20049;-36
2022/08/14 01:47:12;;;;;;;1.88;1.40;;;33.50;45.30;;;;;;10401289;28;20053;-36
2022/08/14 01:52:16;;;;;;;2.17;1.55;;;33.50;45.30;;;;;;10400296;28;20038;-37
2022/08/14 01:57:18;;;;;;;6.80;1.60;;;33.40;45.20;;;;;;10398749;28;20482;-37
2022/08/14 02:02:21;;;;;;;4.82;1.88;;;33.40;45.30;;;;;;10410857;28;20128;-46
2022/08/14 02:07:25;;;;;;;2.30;1.50;;;33.30;45.00;;;;;;10405590;28;20053;-36
2022/08/14 02:12:27;;;;;;;2.63;1.65;;;33.30;45.20;;;;;;10401018;28;20147;-36
2022/08/14 02:17:29;;;;;;;6.22;1.80;;;33.30;45.20;;;;;;10404184;28;20045;-37
2022/08/14 02:22:33;;;;;;;3.33;2.10;;;33.20;45.20;;;;;;10392298;28;20496;-35
2022/08/14 02:27:36;;;;;;;1.60;1.45;;;33.20;45.10;;;;;;10381977;28;20064;-37
2022/08/14 02:32:37;;;;;;;3.92;1.90;;;33.10;45.10;;;;;;10400450;28;20116;-36
2022/08/14 02:37:41;;;;;;;1.63;1.45;;;33.10;45.00;;;;;;10410917;28;20072;-37
2022/08/14 02:42:43;;;;;;;2.65;1.80;;;33.00;44.80;;;;;;10415892;28;20136;-36
2022/08/14 02:47:44;;;;;;;2.30;1.95;;;33.00;44.90;;;;;;10406333;28;20073;-36
2022/08/14 02:52:48;;;;;;;3.60;2.13;;;33.00;44.90;;;;;;10415617;28;20073;-36
2022/08/14 02:57:51;;;;;;;2.03;1.63;;;32.90;44.80;;;;;;10406241;28;20111;-36
2022/08/14 03:02:53;;;;;;;1.75;1.55;;;32.90;44.70;;;;;;10405465;28;20137;-36
2022/08/14 03:08:04;;;;;;;2.13;1.73;;;32.80;44.80;;;;;;10409984;28;20047;-36
2022/08/14 03:13:06;;;;;;;2.42;2.15;;;32.80;44.70;;;;;;10396776;28;20062;-36
2022/08/14 03:18:11;;;;;;;2.20;1.80;;;32.80;44.80;;;;;;10412653;28;20052;-35
2022/08/14 03:23:14;;;;;;;2.58;1.73;;;32.80;44.80;;;;;;10402799;28;20049;-35
2022/08/14 03:28:16;;;;;;;2.85;2.28;;;32.70;44.60;;;;;;10408980;28;20049;-35
2022/08/14 03:33:19;;;;;;;2.28;2.08;;;32.70;44.60;;;;;;10400197;28;20068;-35
2022/08/14 03:38:22;;;;;;;2.42;1.95;;;32.60;44.50;;;;;;10401368;28;20059;-36
2022/08/14 03:43:24;;;;;;;2.42;1.88;;;32.60;44.60;;;;;;10399829;28;20073;-37
2022/08/14 03:48:26;;;;;;;4.18;1.92;;;32.50;44.60;;;;;;10400152;28;20073;-37
2022/08/14 03:53:30;;;;;;;3.17;2.25;;;32.50;44.60;;;;;;10410484;28;20073;-37
2022/08/14 03:58:33;;;;;;;2.17;1.92;;;32.50;45.20;;;;;;10392811;28;20056;-37
2022/08/14 04:03:35;;;;;;;3.35;2.45;;;32.50;44.60;;;;;;10383976;28;20073;-37
2022/08/14 04:08:39;;;;;;;2.20;1.95;;;32.40;44.40;;;;;;10405331;28;20131;-36
2022/08/14 04:13:42;;;;;;;3.20;2.20;;;32.40;44.50;;;;;;10401748;28;20118;-36
2022/08/14 04:18:47;;;;;;;2.30;2.10;;;32.30;44.70;;;;;;10399953;28;20388;-37
2022/08/14 04:23:51;;;;;;;2.72;2.13;;;32.30;44.60;;;;;;10409718;28;20103;-36
2022/08/14 04:28:53;;;;;;;2.40;2.15;;;32.30;44.70;;;;;;10409687;28;20049;-36
2022/08/14 04:33:55;;;;;;;2.13;1.92;;;32.30;44.80;;;;;;10405222;28;20038;-36
2022/08/14 04:44:18;;;;;;;2.60;2.05;;;32.20;44.80;;;;;;10407809;28;20181;-37
2022/08/14 04:49:21;;;;;;;3.22;2.22;;;32.20;45.00;;;;;;10395904;28;20486;-37
2022/08/14 04:54:25;;;;;;;2.95;2.00;;;32.20;44.90;;;;;;10395851;28;20056;-37
2022/08/14 04:59:27;;;;;;;2.33;2.10;;;32.20;45.00;;;;;;10408592;28;20742;-37
2022/08/14 05:04:29;;;;;;;2.40;1.70;;;32.20;45.00;;;;;;10401499;28;20072;-37
2022/08/14 05:09:32;;;;;;;2.30;2.10;;;32.20;44.90;;;;;;10405947;28;20166;-36
2022/08/14 05:14:34;;;;;;;2.97;2.15;;;32.20;44.90;;;;;;10415307;28;20115;-36
2022/08/14 05:19:36;;;;;;;3.20;2.10;;;32.10;44.80;;;;;;10400674;28;20107;-37
2022/08/14 05:24:39;;;;;;;2.17;1.92;;;32.10;45.50;;;;;;10401369;28;20077;-37
2022/08/14 05:29:43;;;;;;;3.08;2.28;;;32.10;44.90;;;;;;10393213;28;20103;-37
2022/08/14 05:34:45;;;;;;;2.50;2.30;;;32.10;44.80;;;;;;10408430;28;20135;-36
2022/08/14 05:39:48;;;;;;;1.98;1.88;;;32.10;44.90;;;;;;10405902;28;20497;-36
2022/08/14 05:44:50;;;;;;;3.42;1.98;;;32.10;44.80;;;;;;10398445;28;20517;-38
2022/08/14 05:49:52;;;;;;;2.33;2.05;;;32.10;44.80;;;;;;10410352;28;20072;-37
2022/08/14 05:54:56;;;;;;;3.58;2.15;;;32.10;44.80;;;;;;10401956;28;20115;-36
2022/08/14 05:59:58;;;;;;;1.98;1.80;;;32.10;44.80;;;;;;10399872;28;20045;-37
2022/08/14 06:05:01;;;;;;;2.58;2.30;;;32.10;44.70;;;;;;10405374;28;20080;-36
2022/08/14 06:10:06;;;;;;;3.70;2.22;;;32.10;44.70;;;;;;10416142;28;20119;-36
2022/08/14 06:15:09;;;;;;;3.13;2.17;;;32.10;44.60;;;;;;10393780;28;20131;-37
2022/08/14 06:20:13;;;;;;;2.35;2.15;;;32.10;44.70;;;;;;10382477;28;20065;-37
2022/08/14 06:25:16;;;;;;;2.92;2.22;;;32.10;44.70;;;;;;10382302;28;20045;-37
2022/08/14 06:30:20;;;;;;;2.22;2.03;;;32.10;44.50;;;;;;10384370;28;20037;-36
2022/08/14 06:35:22;;;;;;;3.08;2.78;;;32.10;44.40;;;;;;10393756;28;20037;-34
2022/08/14 06:40:28;;;;;;;3.30;2.80;;;32.10;44.30;;;;;;10384536;28;20084;-36
2022/08/14 06:45:31;;;;;;;3.00;2.50;;;32.10;44.20;;;;;;10385337;28;20053;-37
2022/08/14 06:50:32;;;;;;;7.18;2.30;;;32.10;44.20;;;;;;10401059;28;20128;-36
2022/08/14 06:55:37;;;;;;;3.05;2.35;;;32.20;44.30;;;;;;10402190;28;20069;-36
2022/08/14 07:00:39;;;;;;;2.60;2.40;;;32.20;44.10;;;;;;10406548;28;20115;-35
2022/08/14 07:05:47;;;;;;;3.78;2.60;;;32.30;43.90;;;;;;10402211;28;20054;-37
2022/08/14 07:10:52;;;;;;;7.93;2.67;;;32.30;43.90;;;;;;10399757;28;20041;-35
2022/08/14 07:15:56;;;;;;;2.63;2.42;;;32.40;44.00;;;;;;10413138;28;20037;-35
2022/08/14 07:20:59;;;;;;;2.85;2.28;;;32.40;43.90;;;;;;10409080;28;20096;-38
2022/08/14 07:26:05;;;;;;;2.70;2.45;;;32.40;44.50;;;;;;10406747;28;20206;-38
2022/08/14 07:31:09;;;;;;;4.22;2.60;;;32.50;43.80;;;;;;10410461;28;20160;-35
2022/08/14 07:36:13;;;;;;;2.58;2.38;;;32.40;43.80;;;;;;10393011;28;20119;-35
2022/08/14 07:41:16;;;;;;;6.07;2.63;;;32.40;43.80;;;;;;10407780;28;20443;-36
2022/08/14 07:46:18;;;;;;;7.43;3.38;;;32.40;43.70;;;;;;10404682;28;20143;-37
2022/08/14 07:51:20;;;;;;;4.68;3.00;;;32.50;43.70;;;;;;10406277;28;20061;-37
2022/08/14 07:56:23;;;;;;;8.82;4.85;;;32.50;43.80;;;;;;10410516;28;20808;-35
2022/08/14 08:01:27;;;;;;;3.92;2.72;;;32.50;43.70;;;;;;10400098;28;20038;-37
2022/08/14 08:06:29;;;;;;;4.55;2.90;;;32.60;43.70;;;;;;10398318;28;20129;-35
2022/08/14 08:11:34;;;;;;;3.97;2.80;;;32.50;43.80;;;;;;10393113;28;20125;-35
2022/08/14 08:16:37;;;;;;;5.00;3.30;;;32.60;43.90;;;;;;10388347;28;20068;-36
2022/08/14 08:21:39;;;;;;;4.68;3.45;;;32.60;43.90;;;;;;10404461;28;20057;-38
2022/08/14 08:26:42;;;;;;;5.57;2.88;;;32.60;43.90;;;;;;10406356;28;20133;-36
2022/08/14 08:31:48;;;;;;;6.15;3.63;;;32.60;43.90;;;;;;10405756;28;20092;-36
2022/08/14 08:36:50;;;;;;;5.28;3.63;;;32.60;43.90;;;;;;10395005;28;20060;-37
2022/08/14 08:41:54;;;;;;;6.60;3.70;;;32.60;43.90;;;;;;10390539;28;20089;-35
2022/08/14 08:47:00;;;;;;;5.82;3.60;;;32.60;43.90;;;;;;10396206;28;20492;-36
2022/08/14 08:52:03;;;;;;;7.40;3.88;;;32.60;44.00;;;;;;10388643;28;20128;-36
2022/08/14 08:57:12;;;;;;;6.65;3.67;;;32.40;43.80;;;;;;10381730;28;20058;-36
2022/08/14 09:02:17;;;;;;;6.38;3.33;;;32.60;44.10;;;;;;10399033;28;20721;-36
2022/08/14 09:07:19;;;;;;;7.60;4.15;;;32.60;44.00;;;;;;10406227;28;20041;-38
2022/08/14 09:12:22;;;;;;;8.25;4.43;;;32.60;44.00;;;;;;10400148;28;20492;-37
2022/08/14 09:17:24;;;;;;;9.00;4.90;;;32.60;44.00;;;;;;10403940;28;20470;-39
2022/08/14 09:22:27;;;;;;;8.23;4.47;;;32.80;44.10;;;;;;10393041;28;20041;-37
2022/08/14 09:27:31;;;;;;;7.07;4.30;;;32.80;44.20;;;;;;10394180;28;20486;-36
2022/08/14 09:32:41;;;;;;;8.30;4.03;;;32.80;44.10;;;;;;10385731;28;20095;-36
2022/08/14 09:37:54;;;;;;;9.73;3.90;;;32.80;44.00;;;;;;10394966;28;20055;-35
2022/08/14 09:43:08;;;;;;;6.25;3.25;;;32.90;44.00;;;;;;10389966;28;20049;-35
2022/08/14 09:48:15;;;;;;;6.55;3.35;;;32.90;44.10;;;;;;10397009;28;20153;-35
2022/08/14 09:53:33;;;;;;;7.53;3.05;;;33.00;44.00;;;;;;10393970;28;20669;-36
2022/08/14 09:58:40;;;;;;;5.78;3.40;;;32.90;43.60;;;;;;10387395;28;20056;-36
2022/08/14 10:03:51;;;;;;;4.85;2.95;;;33.10;43.90;;;;;;10401956;28;20131;-35
2022/08/14 10:08:59;;;;;;;4.13;3.08;;;33.10;43.80;;;;;;10387162;28;20056;-35
2022/08/14 10:14:15;;;;;;;5.80;3.45;;;33.10;43.80;;;;;;10393886;28;20043;-36
2022/08/14 10:19:18;;;;;;;4.72;2.85;;;33.20;43.80;;;;;;10394716;28;20742;-35
2022/08/14 10:24:24;;;;;;;3.20;2.25;;;33.30;43.70;;;;;;10393317;28;20045;-35
2022/08/14 10:29:36;;;;;;;3.65;2.80;;;33.30;43.70;;;;;;10390212;28;20548;-35
2022/08/14 10:34:40;;;;;;;2.53;2.22;;;33.30;43.60;;;;;;10397591;28;20072;-36
2022/08/14 10:39:43;;;;;;;3.38;2.38;;;33.40;43.60;;;;;;10397296;28;20140;-36
2022/08/14 10:44:48;;;;;;;2.83;2.00;;;33.40;43.40;;;;;;10390041;28;20111;-36
2022/08/14 10:49:57;;;;;;;2.58;1.70;;;33.50;43.40;;;;;;10395134;28;20049;-36
2022/08/14 10:55:07;;;;;;;5.40;2.30;;;33.60;42.70;;;;;;10406247;28;20129;-35
2022/08/14 11:00:15;;;;;;;5.10;2.13;;;33.60;42.50;;;;;;10402648;28;20052;-35
2022/08/14 11:05:18;;;;;;;2.53;1.85;;;33.80;42.50;;;;;;10407460;28;20514;-35
2022/08/14 11:10:22;;;;;;;4.03;2.15;;;33.80;42.40;;;;;;10394666;28;20045;-35
2022/08/14 11:15:27;;;;;;;4.28;1.77;;;33.70;42.80;;;;;;10402058;28;20469;-35
2022/08/14 11:20:32;;;;;;;2.90;1.88;;;33.70;43.40;;;;;;10399060;28;20053;-34
2022/08/14 11:25:36;;;;;;;1.45;1.35;;;33.80;43.10;;;;;;10402786;28;20073;-35
2022/08/14 11:30:41;;;;;;;2.85;2.00;;;33.90;43.40;;;;;;10397339;28;20042;-36
2022/08/14 11:35:48;;;;;;;5.13;2.10;;;33.70;43.60;;;;;;10401157;28;20042;-34
2022/08/14 11:40:50;;;;;;;2.88;2.17;;;33.70;43.10;;;;;;10386612;28;20140;-36
2022/08/14 11:45:54;;;;;;;3.65;2.30;;;33.80;43.50;;;;;;10391611;28;20045;-37
2022/08/14 11:50:56;;;;;;;4.90;2.42;;;33.80;43.10;;;;;;10400727;28;20351;-45
2022/08/14 11:56:01;;;;;;;2.33;2.13;;;33.80;43.10;;;;;;10400110;28;20147;-44
2022/08/14 12:01:08;;;;;;;4.35;2.40;;;33.80;43.60;;;;;;10392232;28;20045;-41
2022/08/14 12:06:11;;;;;;;2.92;2.05;;;34.00;43.60;;;;;;10404498;28;20072;-42
2022/08/14 12:11:15;;;;;;;4.05;2.15;;;34.00;43.70;;;;;;10386944;28;20145;-45
2022/08/14 12:16:20;;;;;;;2.15;1.95;;;34.00;44.10;;;;;;10379365;28;20045;-39
2022/08/14 12:21:24;;;;;;;2.67;2.47;;;34.10;44.20;;;;;;10393732;28;20450;-44
2022/08/14 12:26:40;;;;;;;3.38;2.30;;;34.20;43.60;;;;;;10410577;28;20136;-44
2022/08/14 12:37:35;;;;;;;2.42;2.20;;;34.30;44.20;;;;;;10391307;28;20050;-40
2022/08/14 12:42:37;;;;;;;4.68;2.13;;;34.30;44.50;;;;;;10404010;28;20140;-45
2022/08/14 12:47:42;;;;;;;2.08;1.88;;;34.30;44.80;;;;;;10400218;28;20053;-46
2022/08/14 12:52:44;;;;;;;3.40;1.77;;;34.30;44.70;;;;;;10408197;28;20076;-43
2022/08/14 12:57:47;;;;;;;6.65;2.40;;;34.30;44.90;;;;;;10400583;28;20179;-44
2022/08/14 13:02:52;;;;;;;3.05;2.75;;;34.30;44.40;;;;;;10397120;28;20034;-40
2022/08/14 13:07:56;;;;;;;2.38;1.85;;;34.40;44.80;;;;;;10393308;28;20126;-44
2022/08/14 13:12:58;;;;;;;2.60;2.30;;;34.50;45.00;;;;;;10394234;28;20128;-45
2022/08/14 13:18:03;;;;;;;2.55;2.28;;;34.50;44.90;;;;;;10386456;28;20045;-45
2022/08/14 13:23:06;;;;;;;4.65;2.22;;;34.60;45.20;;;;;;10393295;28;20037;-45
2022/08/14 13:28:08;;;;;;;2.95;2.17;;;34.70;45.10;;;;;;10406756;28;20653;-43
2022/08/14 13:33:13;;;;;;;4.75;2.30;;;34.70;45.20;;;;;;10405677;28;20547;-45
2022/08/14 13:38:20;;;;;;;5.60;2.35;;;34.70;44.60;;;;;;10402918;28;20235;-45
2022/08/14 13:43:24;;;;;;;3.15;2.20;;;34.80;45.00;;;;;;10403998;28;20140;-41
2022/08/14 13:48:27;;;;;;;2.40;2.13;;;34.70;45.40;;;;;;10403581;28;20053;-44
2022/08/14 13:53:30;;;;;;;1.80;1.70;;;34.80;45.50;;;;;;10400800;28;20041;-46
2022/08/14 13:58:34;;;;;;;2.88;1.95;;;34.90;45.70;;;;;;10398466;28;20502;-44
2022/08/14 14:03:39;;;;;;;4.45;2.20;;;35.00;45.30;;;;;;10391020;28;20053;-45
2022/08/14 14:08:47;;;;;;;3.97;2.15;;;35.20;46.20;;;;;;10406118;28;20103;-40
2022/08/14 14:13:50;;;;;;;3.03;2.20;;;35.10;45.20;;;;;;10401999;28;20056;-43
2022/08/14 14:18:59;;;;;;;2.67;2.30;;;35.20;45.40;;;;;;10402278;28;20466;-45
2022/08/14 14:24:02;;;;;;;2.92;2.20;;;35.20;45.60;;;;;;10400961;28;20038;-36
2022/08/14 14:29:06;;;;;;;10.95;2.33;;;35.20;48.00;;;;;;10404142;28;20045;-42
2022/08/14 14:34:09;;;;;;;7.68;1.80;;;37.40;37.70;;;;;;10398687;28;20049;-38
2022/08/14 14:39:13;;;;;;;3.53;2.03;;;39.00;33.90;;;;;;10400434;28;20128;-40
2022/08/14 14:44:14;;;;;;;7.45;3.80;;;39.50;32.90;;;;;;10398916;28;20099;-38
2022/08/14 14:49:19;;;;;;;2.28;2.10;;;39.80;38.60;;;;;;10386713;28;20057;-39
2022/08/14 14:54:22;;;;;;;2.00;1.80;;;40.30;32.30;;;;;;10399465;28;20045;-39
2022/08/14 14:59:25;;;;;;;3.78;2.05;;;39.80;32.50;;;;;;10390873;28;20049;-39
2022/08/14 15:04:28;;;;;;;3.40;1.70;;;40.20;32.30;;;;;;10395853;28;20124;-38
2022/08/14 15:09:30;;;;;;;4.55;2.40;;;40.90;35.30;;;;;;10392070;28;20075;-35
2022/08/14 15:14:32;;;;;;;5.40;1.92;;;39.90;32.70;;;;;;10402051;28;20107;-38
2022/08/14 15:19:36;;;;;;;4.53;2.00;;;39.90;38.40;;;;;;10390053;28;20127;-39
2022/08/14 15:24:38;;;;;;;2.45;1.70;;;40.00;36.00;;;;;;10393736;28;20103;-38
2022/08/14 15:29:40;;;;;;;3.92;1.85;;;39.40;37.80;;;;;;10402035;28;20212;-40
2022/08/14 15:34:44;;;;;;;3.78;2.03;;;38.70;39.80;;;;;;10399767;28;20128;-38
2022/08/14 15:39:47;;;;;;;3.67;2.08;;;38.50;36.80;;;;;;10412866;28;20100;-38
2022/08/14 15:44:51;;;;;;;2.92;2.10;;;38.40;37.40;;;;;;10401934;28;20100;-38
2022/08/14 15:49:54;;;;;;;2.28;2.03;;;38.10;41.80;;;;;;10403624;28;20084;-39
2022/08/14 15:54:56;;;;;;;4.47;2.30;;;38.20;37.20;;;;;;10408752;28;20061;-37
2022/08/14 16:05:22;;;;;;;1.80;1.70;;;39.10;41.10;;;;;;10392224;28;20050;-41
2022/08/14 16:10:24;;;;;;;1.70;1.50;;;38.60;37.50;;;;;;10389260;28;20081;-38
2022/08/14 16:15:26;;;;;;;6.13;1.98;;;38.00;42.80;;;;;;10403046;28;20041;-39
2022/08/14 16:20:34;;;;;;;2.13;1.60;;;38.10;36.00;;;;;;10398459;28;20045;-35
2022/08/14 16:25:36;;;;;;;3.72;2.25;;;37.70;43.00;;;;;;10403338;28;20126;-39
2022/08/14 16:30:39;;;;;;;4.10;2.00;;;37.90;36.40;;;;;;10398828;28;20045;-36
2022/08/14 16:35:44;;;;;;;2.95;2.70;;;37.90;41.90;;;;;;10407350;28;20061;-38
2022/08/14 16:40:46;;;;;;;3.20;2.25;;;38.40;38.00;;;;;;10397123;28;20050;-36
2022/08/14 16:45:49;;;;;;;3.00;2.38;;;38.40;42.30;;;;;;10402141;28;20490;-36
2022/08/14 16:50:52;;;;;;;2.38;2.17;;;38.10;39.60;;;;;;10401456;28;20125;-36
2022/08/14 16:56:10;;;;;;;2.80;2.50;;;37.90;43.40;;;;;;10398474;28;20104;-36
2022/08/14 17:01:20;;;;;;;2.47;2.10;;;37.80;43.20;;;;;;10397433;28;20096;-37
2022/08/14 17:06:45;;;;;;;5.05;1.75;;;37.70;43.70;;;;;;10403898;28;20134;-39
2022/08/14 17:11:52;;;;;;;2.50;2.15;;;37.60;43.30;;;;;;10397402;28;20060;-39
2022/08/14 17:16:59;;;;;;;6.28;2.78;;;37.60;43.90;;;;;;10405971;28;20379;-39
2022/08/14 17:22:02;;;;;;;2.35;2.13;;;37.70;39.00;;;;;;10397435;28;20454;-38
2022/08/14 17:27:05;;;;;;;2.58;2.13;;;37.50;44.60;;;;;;10384105;28;20072;-37
2022/08/14 17:32:09;;;;;;;2.85;2.17;;;37.50;43.80;;;;;;10390470;28;20140;-36
2022/08/14 17:37:23;;;;;;;2.60;2.35;;;37.50;44.50;;;;;;10403461;28;20041;-37
2022/08/14 17:42:48;;;;;;;2.40;2.20;;;37.40;42.60;;;;;;10408637;28;20428;-38
2022/08/14 17:47:51;;;;;;;2.80;2.60;;;37.30;44.50;;;;;;10383323;28;20041;-38
2022/08/14 17:52:54;;;;;;;2.47;1.83;;;37.20;44.70;;;;;;10394642;28;20058;-37
2022/08/14 17:57:57;;;;;;;5.25;2.28;;;37.10;45.10;;;;;;10396432;28;20048;-38
2022/08/14 18:03:00;;;;;;;2.28;2.08;;;37.20;44.90;;;;;;10401622;28;20037;-40
2022/08/14 18:08:06;;;;;;;2.08;1.88;;;37.10;44.60;;;;;;10392681;28;20115;-40
2022/08/14 18:13:10;;;;;;;1.88;1.77;;;37.10;44.40;;;;;;10402872;28;20146;-37
2022/08/14 18:18:12;;;;;;;2.33;2.10;;;37.00;44.30;;;;;;10405629;28;20041;-36
2022/08/14 18:23:15;;;;;;;2.78;1.95;;;36.90;44.40;;;;;;10398745;28;20033;-37
2022/08/14 18:28:21;;;;;;;3.53;2.00;;;36.90;44.40;;;;;;10396761;28;20821;-37
2022/08/14 18:33:22;;;;;;;2.25;2.05;;;36.80;44.30;;;;;;10397170;28;20065;-37
2022/08/14 18:38:29;;;;;;;2.38;1.73;;;36.80;44.60;;;;;;10392465;28;20045;-38
2022/08/14 18:43:43;;;;;;;2.50;2.30;;;36.70;44.30;;;;;;10381696;28;20433;-40
2022/08/14 18:48:45;;;;;;;2.25;2.05;;;36.60;44.70;;;;;;10396463;28;20505;-37
2022/08/14 18:53:54;;;;;;;2.13;1.95;;;36.60;44.80;;;;;;10386674;28;20037;-36
2022/08/14 18:58:57;;;;;;;3.15;1.85;;;36.50;44.40;;;;;;10395607;28;20119;-38
2022/08/14 19:04:01;;;;;;;3.00;2.03;;;36.40;45.20;;;;;;10397861;28;20616;-37
2022/08/14 19:09:05;;;;;;;2.35;2.10;;;36.40;45.00;;;;;;10397011;28;20128;-38
2022/08/14 19:14:07;;;;;;;2.45;2.25;;;36.30;44.90;;;;;;10408622;28;20046;-38
2022/08/14 19:19:10;;;;;;;2.28;2.08;;;36.30;44.70;;;;;;10408977;28;20118;-37
2022/08/14 19:24:15;;;;;;;2.58;2.38;;;36.20;44.90;;;;;;10403938;28;20527;-37
2022/08/14 19:29:23;;;;;;;3.78;2.20;;;36.20;45.50;;;;;;10406327;28;20134;-39
2022/08/14 19:34:36;;;;;;;2.50;2.30;;;36.10;45.00;;;;;;10400908;28;20041;-37
2022/08/14 19:39:51;;;;;;;2.30;2.10;;;36.10;45.30;;;;;;10407498;28;20074;-35
2022/08/14 19:44:55;;;;;;;2.83;2.10;;;36.00;45.50;;;;;;10412355;28;20112;-38
2022/08/14 19:49:57;;;;;;;3.33;2.50;;;36.00;45.50;;;;;;10404319;28;20053;-36
2022/08/14 19:55:01;;;;;;;2.28;2.08;;;35.90;45.80;;;;;;10401775;28;20129;-38
2022/08/14 20:00:09;;;;;;;3.95;3.60;;;35.80;45.40;;;;;;10393804;28;20433;-38
2022/08/14 20:05:11;;;;;;;3.33;2.30;;;35.80;45.70;;;;;;10396980;28;20459;-37
2022/08/14 20:10:28;;;;;;;2.97;2.30;;;35.70;45.30;;;;;;10398655;28;20049;-40
2022/08/14 20:15:33;;;;;;;2.53;2.10;;;35.60;45.60;;;;;;10396551;28;20089;-38
2022/08/14 20:20:37;;;;;;;2.42;2.22;;;35.60;45.60;;;;;;10405694;28;20095;-37
2022/08/14 20:25:42;;;;;;;1.85;1.75;;;35.60;45.60;;;;;;10410662;28;20118;-37
2022/08/14 20:30:46;;;;;;;2.53;2.33;;;35.50;45.50;;;;;;10403465;28;20088;-38
2022/08/14 20:35:49;;;;;;;3.97;2.30;;;35.40;45.40;;;;;;10398164;28;20437;-37
2022/08/14 20:40:54;;;;;;;2.50;2.30;;;35.40;45.50;;;;;;10400570;28;20033;-35
2022/08/14 20:45:56;;;;;;;3.72;2.50;;;35.30;45.80;;;;;;10392044;28;20483;-36
2022/08/14 20:51:18;;;;;;;3.22;2.22;;;35.30;45.60;;;;;;10406923;28;20061;-36
2022/08/14 20:56:22;;;;;;;2.80;2.30;;;35.20;45.20;;;;;;10401661;28;20099;-39
2022/08/14 21:01:34;;;;;;;2.55;2.33;;;35.20;45.60;;;;;;10407783;28;20076;-38
2022/08/14 21:06:39;;;;;;;3.53;2.33;;;35.10;45.00;;;;;;10403118;28;20454;-39
2022/08/14 21:11:48;;;;;;;2.42;2.22;;;35.00;44.80;;;;;;10400844;28;20140;-39
2022/08/14 21:16:53;;;;;;;2.70;2.50;;;35.00;45.20;;;;;;10406621;28;20462;-39
2022/08/14 21:21:56;;;;;;;3.55;2.55;;;34.90;45.00;;;;;;10405974;28;20053;-38
2022/08/14 21:27:01;;;;;;;2.45;2.25;;;34.90;45.10;;;;;;10409981;28;20540;-36
2022/08/14 21:32:05;;;;;;;2.70;2.50;;;34.90;45.00;;;;;;10401670;28;20061;-36
2022/08/14 21:37:07;;;;;;;2.60;2.40;;;34.80;45.80;;;;;;10396556;28;20046;-38
2022/08/14 21:42:09;;;;;;;2.88;2.67;;;34.80;45.00;;;;;;10403790;28;20069;-38
2022/08/14 21:47:14;;;;;;;3.50;2.67;;;34.70;44.80;;;;;;10385358;28;20056;-40
2022/08/14 21:52:18;;;;;;;2.63;2.20;;;34.70;45.30;;;;;;10402095;28;20714;-36
2022/08/14 21:57:24;;;;;;;2.83;2.63;;;34.60;45.30;;;;;;10404321;28;20060;-38
2022/08/14 22:02:27;;;;;;;2.55;2.35;;;34.50;45.00;;;;;;10405417;28;20038;-38
2022/08/14 22:07:29;;;;;;;2.63;2.42;;;34.50;45.20;;;;;;10400231;28;20068;-36
2022/08/14 22:12:31;;;;;;;2.90;2.63;;;34.50;45.00;;;;;;10396793;28;20110;-36
2022/08/14 22:17:35;;;;;;;2.58;2.38;;;34.40;45.20;;;;;;10396465;28;20423;-37
2022/08/14 22:22:37;;;;;;;3.45;2.45;;;34.40;44.80;;;;;;10392131;28;20069;-38
2022/08/14 22:27:43;;;;;;;2.53;2.30;;;34.30;44.90;;;;;;10401804;28;20095;-36
2022/08/14 22:32:46;;;;;;;2.55;2.35;;;34.30;45.00;;;;;;10394887;28;21681;-36
2022/08/14 22:37:48;;;;;;;2.60;2.40;;;34.30;45.00;;;;;;10411227;28;20506;-38
2022/08/14 22:42:50;;;;;;;3.22;2.55;;;34.20;45.20;;;;;;10383624;28;20656;-38
2022/08/14 22:47:53;;;;;;;2.50;2.30;;;33.90;44.60;;;;;;10408507;28;20084;-38
2022/08/14 22:52:55;;;;;;;2.78;2.53;;;34.10;45.00;;;;;;10411603;28;20420;-38
2022/08/14 22:57:57;;;;;;;2.65;2.45;;;34.10;45.00;;;;;;10408733;28;20069;-37
2022/08/14 23:03:02;;;;;;;3.40;3.10;;;34.00;44.80;;;;;;10401827;28;20069;-38
2022/08/14 23:08:04;;;;;;;4.25;2.83;;;34.00;44.70;;;;;;10413653;28;20041;-37
2022/08/14 23:13:07;;;;;;;2.42;2.22;;;33.90;44.70;;;;;;10408460;28;20061;-38
2022/08/14 23:18:10;;;;;;;4.25;2.90;;;33.90;44.80;;;;;;10403460;28;20064;-37
2022/08/14 23:23:14;;;;;;;2.70;2.50;;;33.90;44.80;;;;;;10411304;28;20095;-36
2022/08/14 23:28:17;;;;;;;4.55;3.08;;;33.80;44.90;;;;;;10409721;28;20061;-38
2022/08/14 23:33:21;;;;;;;3.78;2.70;;;33.80;44.90;;;;;;10409754;28;20103;-36
2022/08/14 23:38:24;;;;;;;4.90;2.88;;;33.70;44.90;;;;;;10411865;28;20045;-37
2022/08/14 23:43:27;;;;;;;3.13;2.80;;;33.70;44.90;;;;;;10404247;28;20038;-38
2022/08/14 23:48:30;;;;;;;3.85;2.80;;;33.70;44.90;;;;;;10403096;28;20038;-36
2022/08/14 23:53:35;;;;;;;3.25;2.95;;;33.70;45.10;;;;;;10405424;28;20070;-38
2022/08/14 23:58:37;;;;;;;4.15;3.03;;;33.60;45.20;;;;;;10408649;28;20045;-36
